Skip Navigation Links
NOAA logo - Click to go to the NOAA homepage
NOAA's National Weather Service
Alaska Aviation Weather Unit
  NWS logo - Click to go to the NWS homepage
Left Navbar Graphic     17 AKDT = 01 GMT

   
NOAA is celebrating 200 years of science, service, and stewardship. Visit the NOAA 200th celebration Web site to learn more.
USA.gov is the U.S. Government's official Web portal to all Federal, state and local government Web resources and services.
Facebook
NWS on Facebook

Important Change Regarding the AAWU Web Presence

 

Over the last several months, the AAWU has been working to navigate its webpages to a nationally supported server. Security, as well as other needs, have necessitated the change.  In the process, we have made an effort to enhance the functionality of our website, as well as some of our products. As of June 27, 2017, aawu.arh.noaa.gov will be discontinued. The new AAWU web address is weather.gov/aawu. It is now live and will run in-parallel with the old site until it is discontinued. Please send any feedback or questions regarding the new webpages to nws.ar.aawu.webauthors@noaa.gov.  Thank you for your patience during this time of transition.
AAWU Home :: Display TAF Add Bookmark
METAR PANW 251956Z AUTO 17009KT 110V210 10SM CLR 16/07 A3000 RMK AO2
     SLP174 T01560067=

METAR PANW 252056Z AUTO 21008KT 170V240 10SM FEW035 16/07 A2998 RMK AO2
     SLP170 T01610067 56018=

METAR PANW 252156Z AUTO 18011G18KT 10SM FEW039 17/07 A2997 RMK AO2
 SLP164 T01670067=

METAR PANW 252256Z AUTO 18011G19KT 10SM CLR 17/06 A2995 RMK AO2 SLP160
     T01670061=

METAR PANW 252356Z AUTO 19013G18KT 10SM FEW040 16/07 A2994 RMK AO2
 SLP157 T01610067 10178 20094 56014=


NOAA's National Weather Service
Alaska Aviation Weather Unit
6930 Sand Lake Road
Anchorage, AK 99502-1845
Disclaimer
Credits
Glossary
Privacy Policy
About Us
Career Opportunities
Contact AAWU Internet Services Site last modified: April, 17th 2012